sensor_id;sensor_type;location;lat;lon;timestamp;P1;P4;P2;P0;N10;N4;N25;N1;N05;TS
66834;SPS30;53743;51.100;5.874;2023-12-20T00:00:18;8.85;8.85;8.85;8.36;66.78;66.77;66.76;66.67;59.09;0.42
66834;SPS30;53743;51.100;5.874;2023-12-20T00:01:19;8.70;8.70;8.70;8.23;65.70;65.70;65.68;65.60;58.13;0.41
66834;SPS30;53743;51.100;5.874;2023-12-20T00:02:22;8.86;8.86;8.86;8.38;66.92;66.91;66.90;66.81;59.21;0.42
66834;SPS30;53743;51.100;5.874;2023-12-20T00:03:23;8.68;8.68;8.68;8.21;65.54;65.53;65.52;65.44;57.99;0.43
66834;SPS30;53743;51.100;5.874;2023-12-20T00:04:25;8.69;8.69;8.69;8.21;65.57;65.56;65.55;65.47;58.02;0.43
66834;SPS30;53743;51.100;5.874;2023-12-20T00:05:27;8.09;8.09;8.09;7.65;61.10;61.09;61.08;61.00;54.06;0.44
66834;SPS30;53743;51.100;5.874;2023-12-20T00:06:29;8.46;8.46;8.46;8.00;63.88;63.87;63.86;63.78;56.52;0.44
66834;SPS30;53743;51.100;5.874;2023-12-20T00:07:31;9.76;9.76;9.76;9.23;73.70;73.69;73.67;73.58;65.21;0.45
66834;SPS30;53743;51.100;5.874;2023-12-20T00:08:32;8.80;8.80;8.80;8.32;66.41;66.40;66.38;66.30;58.75;0.44
66834;SPS30;53743;51.100;5.874;2023-12-20T00:09:34;8.43;8.43;8.43;7.97;63.64;63.63;63.62;63.54;56.31;0.42
66834;SPS30;53743;51.100;5.874;2023-12-20T00:10:35;8.49;8.49;8.49;8.03;64.09;64.08;64.07;63.99;56.71;0.44
66834;SPS30;53743;51.100;5.874;2023-12-20T00:11:37;7.10;7.10;7.10;6.71;53.58;53.57;53.56;53.49;47.40;0.44
66834;SPS30;53743;51.100;5.874;2023-12-20T00:12:38;7.11;7.11;7.11;6.72;53.67;53.66;53.65;53.58;47.49;0.43
66834;SPS30;53743;51.100;5.874;2023-12-20T00:13:41;7.01;7.01;7.01;6.63;52.91;52.91;52.90;52.83;46.82;0.42
66834;SPS30;53743;51.100;5.874;2023-12-20T00:14:42;6.93;6.93;6.93;6.55;52.31;52.30;52.29;52.22;46.28;0.41
66834;SPS30;53743;51.100;5.874;2023-12-20T00:15:44;6.09;6.09;6.09;5.76;45.98;45.98;45.97;45.91;40.69;0.41
66834;SPS30;53743;51.100;5.874;2023-12-20T00:16:45;5.38;5.38;5.38;5.09;40.61;40.61;40.60;40.55;35.94;0.42
66834;SPS30;53743;51.100;5.874;2023-12-20T00:17:47;5.08;5.08;5.08;4.80;38.35;38.35;38.34;38.29;33.93;0.44
66834;SPS30;53743;51.100;5.874;2023-12-20T00:18:48;5.76;5.76;5.76;5.45;43.52;43.51;43.51;43.45;38.51;0.44
66834;SPS30;53743;51.100;5.874;2023-12-20T00:19:50;5.22;5.22;5.22;4.94;39.45;39.44;39.43;39.38;34.90;0.44
66834;SPS30;53743;51.100;5.874;2023-12-20T00:20:52;4.84;4.84;4.84;4.58;36.56;36.56;36.55;36.51;32.35;0.43
66834;SPS30;53743;51.100;5.874;2023-12-20T00:21:53;5.23;5.23;5.23;4.94;39.47;39.47;39.46;39.41;34.93;0.43
66834;SPS30;53743;51.100;5.874;2023-12-20T00:22:56;4.80;4.80;4.80;4.54;36.22;36.22;36.21;36.16;32.05;0.43
66834;SPS30;53743;51.100;5.874;2023-12-20T00:23:58;4.23;4.23;4.23;4.00;31.95;31.95;31.94;31.90;28.27;0.43
66834;SPS30;53743;51.100;5.874;2023-12-20T00:25:00;4.17;4.17;4.17;3.95;31.52;31.51;31.51;31.47;27.88;0.43
66834;SPS30;53743;51.100;5.874;2023-12-20T00:26:01;4.28;4.28;4.28;4.04;32.28;32.28;32.27;32.23;28.56;0.42
66834;SPS30;53743;51.100;5.874;2023-12-20T00:27:04;4.12;4.12;4.12;3.90;31.10;31.10;31.09;31.05;27.52;0.41
66834;SPS30;53743;51.100;5.874;2023-12-20T00:28:05;4.39;4.39;4.39;4.15;33.11;33.10;33.10;33.05;29.29;0.42
66834;SPS30;53743;51.100;5.874;2023-12-20T00:29:08;4.31;4.31;4.31;4.08;32.56;32.56;32.55;32.51;28.81;0.43
66834;SPS30;53743;51.100;5.874;2023-12-20T00:30:09;3.83;3.83;3.83;3.63;28.95;28.94;28.94;28.90;25.61;0.43
66834;SPS30;53743;51.100;5.874;2023-12-20T00:31:12;5.00;5.00;5.00;4.73;37.75;37.74;37.74;37.69;33.40;0.45
66834;SPS30;53743;51.100;5.874;2023-12-20T00:32:13;4.16;4.16;4.16;3.94;31.42;31.42;31.41;31.37;27.80;0.45
66834;SPS30;53743;51.100;5.874;2023-12-20T00:33:14;3.76;3.76;3.76;3.55;28.35;28.35;28.34;28.31;25.09;0.44
66834;SPS30;53743;51.100;5.874;2023-12-20T00:34:16;4.54;4.54;4.54;4.30;34.30;34.29;34.28;34.24;30.34;0.44
66834;SPS30;53743;51.100;5.874;2023-12-20T00:35:18;4.46;4.46;4.46;4.22;33.71;33.70;33.70;33.65;29.82;0.44
66834;SPS30;53743;51.100;5.874;2023-12-20T00:36:20;4.53;4.53;4.53;4.28;34.19;34.18;34.17;34.13;30.25;0.44
66834;SPS30;53743;51.100;5.874;2023-12-20T00:37:21;3.77;3.77;3.77;3.57;28.47;28.47;28.46;28.42;25.19;0.44
66834;SPS30;53743;51.100;5.874;2023-12-20T00:38:24;3.14;3.14;3.14;2.97;23.69;23.69;23.68;23.65;20.96;0.44
66834;SPS30;53743;51.100;5.874;2023-12-20T00:39:25;3.38;3.38;3.38;3.20;25.51;25.51;25.50;25.47;22.57;0.45
66834;SPS30;53743;51.100;5.874;2023-12-20T00:40:27;3.41;3.39;3.36;3.13;25.00;24.99;24.98;24.90;21.99;0.47
66834;SPS30;53743;51.100;5.874;2023-12-20T00:41:28;3.23;3.23;3.23;3.05;24.32;24.32;24.31;24.28;21.51;0.46
66834;SPS30;53743;51.100;5.874;2023-12-20T00:42:30;3.42;3.41;3.40;3.20;25.51;25.51;25.50;25.45;22.52;0.47
66834;SPS30;53743;51.100;5.874;2023-12-20T00:43:31;3.49;3.45;3.39;3.13;25.01;25.01;24.99;24.87;21.91;0.47
66834;SPS30;53743;51.100;5.874;2023-12-20T00:44:33;3.34;3.29;3.20;2.93;23.38;23.37;23.35;23.20;20.38;0.47
66834;SPS30;53743;51.100;5.874;2023-12-20T00:45:34;2.63;2.59;2.51;2.29;18.30;18.29;18.27;18.15;15.93;0.47
66834;SPS30;53743;51.100;5.874;2023-12-20T00:46:36;2.78;2.77;2.74;2.56;20.41;20.40;20.39;20.33;17.95;0.47
66834;SPS30;53743;51.100;5.874;2023-12-20T00:47:37;3.11;3.09;3.05;2.84;22.67;22.66;22.65;22.57;19.92;0.47
66834;SPS30;53743;51.100;5.874;2023-12-20T00:48:39;3.03;2.97;2.86;2.58;20.59;20.58;20.55;20.38;17.82;0.49
66834;SPS30;53743;51.100;5.874;2023-12-20T00:49:42;2.67;2.61;2.49;2.22;17.74;17.73;17.70;17.53;15.28;0.51
66834;SPS30;53743;51.100;5.874;2023-12-20T00:50:44;2.68;2.60;2.46;2.17;17.31;17.30;17.26;17.06;14.82;0.53
66834;SPS30;53743;51.100;5.874;2023-12-20T00:51:46;2.58;2.49;2.32;2.00;16.02;16.01;15.97;15.74;13.59;0.55
66834;SPS30;53743;51.100;5.874;2023-12-20T00:52:48;2.80;2.69;2.48;2.11;16.86;16.85;16.80;16.51;14.19;0.56
66834;SPS30;53743;51.100;5.874;2023-12-20T00:53:50;2.31;2.21;2.01;1.68;13.42;13.41;13.36;13.10;11.19;0.58
66834;SPS30;53743;51.100;5.874;2023-12-20T00:54:54;2.17;2.07;1.87;1.55;12.37;12.36;12.31;12.04;10.25;0.59
66834;SPS30;53743;51.100;5.874;2023-12-20T00:55:56;2.49;2.37;2.12;1.73;13.82;13.81;13.75;13.42;11.37;0.61
66834;SPS30;53743;51.100;5.874;2023-12-20T00:56:59;2.70;2.55;2.27;1.82;14.53;14.51;14.44;14.06;11.85;0.61
66834;SPS30;53743;51.100;5.874;2023-12-20T00:58:01;2.60;2.46;2.17;1.73;13.87;13.85;13.78;13.41;11.28;0.61
66834;SPS30;53743;51.100;5.874;2023-12-20T00:59:02;3.37;3.15;2.73;2.10;16.78;16.76;16.66;16.10;13.37;0.64
66834;SPS30;53743;51.100;5.874;2023-12-20T01:00:04;2.58;2.41;2.08;1.59;12.70;12.68;12.60;12.17;10.07;0.63
66834;SPS30;53743;51.100;5.874;2023-12-20T01:01:06;2.85;2.66;2.30;1.75;14.04;14.03;13.94;13.46;11.15;0.63
66834;SPS30;53743;51.100;5.874;2023-12-20T01:02:08;2.03;1.90;1.64;1.26;10.11;10.09;10.03;9.70;8.05;0.62
66834;SPS30;53743;51.100;5.874;2023-12-20T01:03:10;2.43;2.27;1.97;1.52;12.13;12.12;12.04;11.64;9.67;0.62
66834;SPS30;53743;51.100;5.874;2023-12-20T01:04:12;2.72;2.54;2.19;1.68;13.45;13.43;13.35;12.90;10.69;0.63
66834;SPS30;53743;51.100;5.874;2023-12-20T01:05:13;2.72;2.54;2.19;1.68;13.46;13.45;13.36;12.91;10.71;0.64
66834;SPS30;53743;51.100;5.874;2023-12-20T01:06:15;2.88;2.69;2.33;1.78;14.23;14.21;14.13;13.64;11.30;0.64
66834;SPS30;53743;51.100;5.874;2023-12-20T01:07:17;2.58;2.41;2.08;1.59;12.76;12.74;12.66;12.23;10.14;0.64
66834;SPS30;53743;51.100;5.874;2023-12-20T01:08:19;2.54;2.37;2.04;1.56;12.51;12.49;12.41;11.98;9.93;0.64
66834;SPS30;53743;51.100;5.874;2023-12-20T01:09:21;2.77;2.59;2.24;1.72;13.80;13.79;13.70;13.24;11.00;0.63
66834;SPS30;53743;51.100;5.874;2023-12-20T01:10:23;2.86;2.68;2.33;1.80;14.39;14.37;14.29;13.82;11.50;0.62
66834;SPS30;53743;51.100;5.874;2023-12-20T01:11:28;3.23;3.03;2.64;2.06;16.47;16.45;16.36;15.85;13.22;0.62
66834;SPS30;53743;51.100;5.874;2023-12-20T01:12:29;3.18;2.98;2.60;2.02;16.14;16.12;16.03;15.52;12.93;0.63
66834;SPS30;53743;51.100;5.874;2023-12-20T01:13:31;3.89;3.65;3.16;2.44;19.54;19.52;19.40;18.77;15.60;0.63
66834;SPS30;53743;51.100;5.874;2023-12-20T01:14:32;3.20;3.01;2.63;2.06;16.52;16.50;16.41;15.92;13.31;0.61
66834;SPS30;53743;51.100;5.874;2023-12-20T01:15:34;3.43;3.23;2.84;2.24;17.92;17.90;17.81;17.29;14.49;0.60
66834;SPS30;53743;51.100;5.874;2023-12-20T01:16:35;3.09;2.91;2.55;2.01;16.05;16.03;15.94;15.47;12.95;0.60
66834;SPS30;53743;51.100;5.874;2023-12-20T01:17:37;3.35;3.17;2.80;2.23;17.85;17.83;17.74;17.25;14.51;0.60
66834;SPS30;53743;51.100;5.874;2023-12-20T01:18:38;3.08;2.92;2.61;2.11;16.85;16.84;16.76;16.34;13.82;0.58
66834;SPS30;53743;51.100;5.874;2023-12-20T01:19:40;2.87;2.73;2.44;1.98;15.83;15.82;15.75;15.37;13.01;0.59
66834;SPS30;53743;51.100;5.874;2023-12-20T01:20:41;2.97;2.83;2.56;2.11;16.86;16.85;16.78;16.41;13.96;0.58
66834;SPS30;53743;51.100;5.874;2023-12-20T01:21:45;2.48;2.37;2.15;1.78;14.26;14.25;14.20;13.91;11.86;0.59
66834;SPS30;53743;51.100;5.874;2023-12-20T01:22:46;2.57;2.45;2.21;1.82;14.55;14.53;14.48;14.16;12.04;0.60
66834;SPS30;53743;51.100;5.874;2023-12-20T01:23:48;2.86;2.72;2.45;2.00;16.03;16.02;15.95;15.59;13.23;0.59
66834;SPS30;53743;51.100;5.874;2023-12-20T01:24:49;2.61;2.48;2.22;1.81;14.50;14.49;14.43;14.09;11.95;0.59
66834;SPS30;53743;51.100;5.874;2023-12-20T01:25:51;2.72;2.58;2.31;1.87;14.99;14.97;14.91;14.55;12.32;0.59
66834;SPS30;53743;51.100;5.874;2023-12-20T01:26:52;2.86;2.70;2.40;1.92;15.35;15.33;15.26;14.85;12.51;0.60
66834;SPS30;53743;51.100;5.874;2023-12-20T01:27:54;3.23;3.04;2.67;2.10;16.77;16.75;16.66;16.17;13.54;0.61
66834;SPS30;53743;51.100;5.874;2023-12-20T01:28:55;2.64;2.48;2.17;1.70;13.59;13.57;13.50;13.09;10.94;0.62
66834;SPS30;53743;51.100;5.874;2023-12-20T01:29:57;3.02;2.84;2.49;1.96;15.67;15.65;15.57;15.11;12.65;0.62
66834;SPS30;53743;51.100;5.874;2023-12-20T01:30:58;2.89;2.72;2.40;1.89;15.15;15.13;15.06;14.62;12.27;0.62
66834;SPS30;53743;51.100;5.874;2023-12-20T01:32:00;2.70;2.55;2.25;1.79;14.35;14.34;14.26;13.87;11.66;0.61
66834;SPS30;53743;51.100;5.874;2023-12-20T01:33:01;2.26;2.13;1.88;1.49;11.95;11.93;11.87;11.54;9.69;0.61
66834;SPS30;53743;51.100;5.874;2023-12-20T01:34:03;2.72;2.57;2.26;1.78;14.27;14.26;14.18;13.78;11.55;0.61
66834;SPS30;53743;51.100;5.874;2023-12-20T01:35:04;2.78;2.62;2.31;1.84;14.71;14.69;14.62;14.21;11.94;0.60
66834;SPS30;53743;51.100;5.874;2023-12-20T01:36:06;2.73;2.58;2.28;1.82;14.55;14.53;14.46;14.07;11.83;0.60
66834;SPS30;53743;51.100;5.874;2023-12-20T01:37:09;2.62;2.47;2.16;1.69;13.54;13.53;13.46;13.05;10.92;0.61
66834;SPS30;53743;51.100;5.874;2023-12-20T01:38:10;2.83;2.64;2.25;1.70;13.60;13.58;13.49;12.99;10.71;0.64
66834;SPS30;53743;51.100;5.874;2023-12-20T01:39:12;3.17;2.94;2.50;1.86;14.92;14.90;14.80;14.22;11.67;0.65
66834;SPS30;53743;51.100;5.874;2023-12-20T01:40:14;3.39;3.13;2.64;1.94;15.52;15.49;15.37;14.73;12.01;0.66
66834;SPS30;53743;51.100;5.874;2023-12-20T01:41:16;2.93;2.71;2.27;1.66;13.26;13.24;13.14;12.58;10.22;0.66
66834;SPS30;53743;51.100;5.874;2023-12-20T01:42:18;3.38;3.12;2.62;1.91;15.31;15.29;15.17;14.52;11.81;0.66
66834;SPS30;53743;51.100;5.874;2023-12-20T01:43:19;4.30;3.95;3.27;2.32;18.61;18.58;18.41;17.53;14.09;0.69
66834;SPS30;53743;51.100;5.874;2023-12-20T01:44:21;3.44;3.16;2.61;1.84;14.71;14.69;14.56;13.84;11.09;0.70
66834;SPS30;53743;51.100;5.874;2023-12-20T01:45:21;3.38;3.10;2.56;1.80;14.46;14.44;14.31;13.61;10.91;0.70
66834;SPS30;53743;51.100;5.874;2023-12-20T01:46:23;3.94;3.61;2.97;2.08;16.65;16.62;16.46;15.63;12.49;0.71
66834;SPS30;53743;51.100;5.874;2023-12-20T01:47:26;3.66;3.34;2.72;1.87;15.01;14.98;14.83;14.04;11.13;0.72
66834;SPS30;53743;51.100;5.874;2023-12-20T01:48:28;3.13;2.85;2.31;1.56;12.55;12.52;12.39;11.69;9.21;0.73
66834;SPS30;53743;51.100;5.874;2023-12-20T01:49:32;3.57;3.24;2.59;1.72;13.80;13.77;13.61;12.78;9.96;0.74
66834;SPS30;53743;51.100;5.874;2023-12-20T01:50:35;3.71;3.37;2.69;1.77;14.21;14.18;14.02;13.15;10.21;0.75
66834;SPS30;53743;51.100;5.874;2023-12-20T01:51:37;3.35;3.05;2.47;1.67;13.41;13.38;13.24;12.49;9.83;0.73
66834;SPS30;53743;51.100;5.874;2023-12-20T01:52:42;3.28;3.00;2.44;1.67;13.38;13.36;13.23;12.50;9.89;0.72
66834;SPS30;53743;51.100;5.874;2023-12-20T01:53:45;3.54;3.24;2.64;1.82;14.58;14.55;14.41;13.64;10.82;0.72
66834;SPS30;53743;51.100;5.874;2023-12-20T01:54:49;3.39;3.11;2.56;1.80;14.43;14.40;14.27;13.57;10.86;0.70
66834;SPS30;53743;51.100;5.874;2023-12-20T01:55:52;2.88;2.65;2.19;1.54;12.36;12.34;12.23;11.63;9.33;0.69
66834;SPS30;53743;51.100;5.874;2023-12-20T01:56:59;4.14;3.79;3.10;2.15;17.25;17.22;17.05;16.17;12.87;0.71
66834;SPS30;53743;51.100;5.874;2023-12-20T01:58:03;3.48;3.18;2.59;1.78;14.31;14.28;14.14;13.38;10.62;0.71
66834;SPS30;53743;51.100;5.874;2023-12-20T01:59:06;3.31;3.03;2.48;1.72;13.80;13.77;13.64;12.93;10.30;0.70
66834;SPS30;53743;51.100;5.874;2023-12-20T02:00:09;3.69;3.36;2.71;1.82;14.64;14.61;14.45;13.62;10.69;0.73
66834;SPS30;53743;51.100;5.874;2023-12-20T02:01:14;3.61;3.28;2.63;1.74;14.00;13.97;13.81;12.97;10.12;0.74
66834;SPS30;53743;51.100;5.874;2023-12-20T02:02:16;4.06;3.69;2.97;1.99;15.97;15.94;15.77;14.84;11.62;0.72
66834;SPS30;53743;51.100;5.874;2023-12-20T02:03:19;3.58;3.25;2.62;1.76;14.09;14.06;13.91;13.10;10.26;0.71
66834;SPS30;53743;51.100;5.874;2023-12-20T02:04:21;3.83;3.49;2.82;1.90;15.26;15.23;15.07;14.20;11.16;0.71
66834;SPS30;53743;51.100;5.874;2023-12-20T02:05:24;3.54;3.23;2.63;1.80;14.41;14.38;14.24;13.46;10.65;0.70
66834;SPS30;53743;51.100;5.874;2023-12-20T02:06:28;2.83;2.59;2.12;1.46;11.70;11.68;11.57;10.95;8.70;0.70
66834;SPS30;53743;51.100;5.874;2023-12-20T02:07:32;3.97;3.63;2.96;2.04;16.34;16.31;16.15;15.29;12.13;0.70
66834;SPS30;53743;51.100;5.874;2023-12-20T02:08:35;3.70;3.37;2.73;1.84;14.77;14.74;14.59;13.76;10.82;0.73
66834;SPS30;53743;51.100;5.874;2023-12-20T02:09:37;4.02;3.66;2.95;1.98;15.84;15.81;15.64;14.72;11.54;0.74
66834;SPS30;53743;51.100;5.874;2023-12-20T02:10:40;3.74;3.41;2.75;1.85;14.82;14.79;14.63;13.78;10.82;0.74
66834;SPS30;53743;51.100;5.874;2023-12-20T02:11:43;4.36;3.97;3.20;2.15;17.25;17.21;17.03;16.04;12.58;0.73
66834;SPS30;53743;51.100;5.874;2023-12-20T02:12:44;3.46;3.15;2.53;1.69;13.57;13.54;13.39;12.60;9.85;0.73
66834;SPS30;53743;51.100;5.874;2023-12-20T02:13:45;3.79;3.45;2.79;1.88;15.05;15.02;14.86;14.00;11.00;0.72
66834;SPS30;53743;51.100;5.874;2023-12-20T02:14:47;3.76;3.43;2.79;1.92;15.38;15.35;15.19;14.37;11.39;0.70
66834;SPS30;53743;51.100;5.874;2023-12-20T02:15:49;3.69;3.38;2.77;1.91;15.35;15.32;15.18;14.38;11.44;0.70
66834;SPS30;53743;51.100;5.874;2023-12-20T02:16:51;3.90;3.59;2.97;2.10;16.85;16.82;16.67;15.87;12.75;0.67
66834;SPS30;53743;51.100;5.874;2023-12-20T02:17:52;3.63;3.36;2.83;2.07;16.57;16.55;16.42;15.73;12.82;0.65
66834;SPS30;53743;51.100;5.874;2023-12-20T02:18:54;3.45;3.20;2.70;1.99;15.91;15.89;15.77;15.12;12.35;0.66
66834;SPS30;53743;51.100;5.874;2023-12-20T02:19:56;3.36;3.10;2.60;1.89;15.17;15.15;15.03;14.38;11.69;0.67
66834;SPS30;53743;51.100;5.874;2023-12-20T02:20:57;3.41;3.14;2.62;1.89;15.12;15.10;14.97;14.30;11.57;0.68
66834;SPS30;53743;51.100;5.874;2023-12-20T02:22:09;3.47;3.20;2.67;1.91;15.34;15.31;15.18;14.49;11.71;0.67
66834;SPS30;53743;51.100;5.874;2023-12-20T02:23:11;3.70;3.42;2.87;2.09;16.76;16.73;16.60;15.89;12.92;0.66
66834;SPS30;53743;51.100;5.874;2023-12-20T02:24:13;3.27;3.03;2.57;1.91;15.27;15.25;15.14;14.54;11.91;0.64
66834;SPS30;53743;51.100;5.874;2023-12-20T02:25:14;3.05;2.84;2.42;1.82;14.58;14.56;14.46;13.92;11.45;0.63
66834;SPS30;53743;51.100;5.874;2023-12-20T02:26:17;2.91;2.72;2.35;1.80;14.40;14.38;14.29;13.81;11.45;0.62
66834;SPS30;53743;51.100;5.874;2023-12-20T02:27:18;3.08;2.88;2.50;1.93;15.48;15.46;15.37;14.87;12.37;0.62
66834;SPS30;53743;51.100;5.874;2023-12-20T02:28:23;2.50;2.35;2.05;1.60;12.83;12.81;12.74;12.35;10.31;0.61
66834;SPS30;53743;51.100;5.874;2023-12-20T02:29:24;2.80;2.63;2.30;1.80;14.41;14.39;14.31;13.88;11.60;0.61
66834;SPS30;53743;51.100;5.874;2023-12-20T02:30:27;2.70;2.53;2.20;1.71;13.71;13.69;13.61;13.19;10.99;0.62
66834;SPS30;53743;51.100;5.874;2023-12-20T02:31:28;3.47;3.24;2.79;2.13;17.05;17.02;16.92;16.33;13.51;0.64
66834;SPS30;53743;51.100;5.874;2023-12-20T02:32:30;3.34;3.12;2.70;2.06;16.51;16.49;16.39;15.82;13.12;0.65
66834;SPS30;53743;51.100;5.874;2023-12-20T02:33:31;3.10;2.88;2.46;1.85;14.85;14.83;14.73;14.18;11.68;0.66
66834;SPS30;53743;51.100;5.874;2023-12-20T02:34:33;3.67;3.42;2.92;2.19;17.54;17.52;17.40;16.75;13.78;0.66
66834;SPS30;53743;51.100;5.874;2023-12-20T02:35:34;3.76;3.49;2.96;2.19;17.56;17.54;17.41;16.72;13.69;0.66
66834;SPS30;53743;51.100;5.874;2023-12-20T02:36:36;3.11;2.89;2.46;1.83;14.65;14.63;14.52;13.95;11.44;0.65
66834;SPS30;53743;51.100;5.874;2023-12-20T02:37:39;4.01;3.72;3.16;2.36;18.89;18.86;18.73;18.00;14.77;0.65
66834;SPS30;53743;51.100;5.874;2023-12-20T02:38:41;3.95;3.67;3.11;2.30;18.44;18.41;18.28;17.55;14.37;0.67
66834;SPS30;53743;51.100;5.874;2023-12-20T02:39:42;3.53;3.27;2.77;2.05;16.39;16.36;16.24;15.59;12.75;0.67
66834;SPS30;53743;51.100;5.874;2023-12-20T02:40:43;3.87;3.60;3.05;2.27;18.16;18.13;18.00;17.29;14.17;0.65
66834;SPS30;53743;51.100;5.874;2023-12-20T02:41:44;3.65;3.40;2.91;2.19;17.55;17.52;17.41;16.77;13.82;0.64
66834;SPS30;53743;51.100;5.874;2023-12-20T02:42:45;3.98;3.70;3.15;2.35;18.82;18.80;18.67;17.95;14.74;0.65
66834;SPS30;53743;51.100;5.874;2023-12-20T02:43:47;3.86;3.59;3.06;2.29;18.31;18.29;18.16;17.47;14.36;0.64
66834;SPS30;53743;51.100;5.874;2023-12-20T02:44:48;3.55;3.30;2.81;2.10;16.79;16.77;16.65;16.01;13.15;0.64
66834;SPS30;53743;51.100;5.874;2023-12-20T02:45:50;3.49;3.26;2.81;2.15;17.23;17.21;17.10;16.52;13.69;0.63
66834;SPS30;53743;51.100;5.874;2023-12-20T02:46:51;3.74;3.50;3.04;2.34;18.72;18.70;18.59;17.98;14.94;0.63
66834;SPS30;53743;51.100;5.874;2023-12-20T02:47:53;3.79;3.55;3.10;2.41;19.29;19.27;19.16;18.56;15.48;0.62
66834;SPS30;53743;51.100;5.874;2023-12-20T02:48:55;3.79;3.57;3.14;2.48;19.86;19.84;19.74;19.17;16.08;0.62
66834;SPS30;53743;51.100;5.874;2023-12-20T02:49:57;3.42;3.23;2.86;2.29;18.34;18.32;18.23;17.75;14.96;0.62
66834;SPS30;53743;51.100;5.874;2023-12-20T02:50:58;3.66;3.47;3.09;2.49;19.93;19.91;19.82;19.31;16.31;0.61
66834;SPS30;53743;51.100;5.874;2023-12-20T02:52:00;3.66;3.48;3.11;2.53;20.26;20.24;20.16;19.67;16.67;0.61
66834;SPS30;53743;51.100;5.874;2023-12-20T02:53:03;3.69;3.50;3.12;2.53;20.21;20.19;20.10;19.61;16.58;0.61
66834;SPS30;53743;51.100;5.874;2023-12-20T02:54:05;4.03;3.80;3.36;2.67;21.35;21.32;21.22;20.63;17.34;0.62
66834;SPS30;53743;51.100;5.874;2023-12-20T02:55:06;3.27;3.07;2.68;2.08;16.67;16.66;16.56;16.04;13.38;0.63
66834;SPS30;53743;51.100;5.874;2023-12-20T02:56:09;3.45;3.24;2.83;2.20;17.63;17.61;17.51;16.96;14.16;0.63
66834;SPS30;53743;51.100;5.874;2023-12-20T02:57:10;3.77;3.55;3.13;2.47;19.78;19.76;19.66;19.09;16.02;0.62
66834;SPS30;53743;51.100;5.874;2023-12-20T02:58:12;3.86;3.62;3.16;2.45;19.62;19.60;19.49;18.87;15.73;0.64
66834;SPS30;53743;51.100;5.874;2023-12-20T02:59:13;3.85;3.61;3.13;2.43;19.43;19.41;19.29;18.67;15.55;0.64
66834;SPS30;53743;51.100;5.874;2023-12-20T03:00:15;3.77;3.54;3.10;2.42;19.41;19.38;19.28;18.69;15.62;0.61
66834;SPS30;53743;51.100;5.874;2023-12-20T03:01:16;3.29;3.09;2.71;2.12;16.99;16.98;16.88;16.38;13.70;0.60
66834;SPS30;53743;51.100;5.874;2023-12-20T03:02:19;3.25;3.07;2.72;2.17;17.38;17.36;17.28;16.81;14.15;0.59
66834;SPS30;53743;51.100;5.874;2023-12-20T03:03:20;3.99;3.74;3.26;2.54;20.35;20.33;20.21;19.58;16.34;0.62
66834;SPS30;53743;51.100;5.874;2023-12-20T03:04:22;4.05;3.80;3.31;2.57;20.61;20.58;20.47;19.82;16.53;0.61
66834;SPS30;53743;51.100;5.874;2023-12-20T03:05:23;4.00;3.76;3.28;2.55;20.39;20.37;20.25;19.62;16.36;0.62
66834;SPS30;53743;51.100;5.874;2023-12-20T03:06:25;4.10;3.85;3.36;2.62;20.98;20.96;20.84;20.20;16.86;0.62
66834;SPS30;53743;51.100;5.874;2023-12-20T03:07:26;3.81;3.60;3.21;2.58;20.62;20.60;20.50;19.97;16.86;0.60
66834;SPS30;53743;51.100;5.874;2023-12-20T03:08:29;3.30;3.15;2.84;2.34;18.73;18.71;18.64;18.23;15.51;0.59
66834;SPS30;53743;51.100;5.874;2023-12-20T03:09:30;3.39;3.24;2.95;2.46;19.69;19.68;19.61;19.22;16.42;0.58
66834;SPS30;53743;51.100;5.874;2023-12-20T03:10:31;3.51;3.37;3.10;2.62;20.93;20.92;20.85;20.48;17.56;0.57
66834;SPS30;53743;51.100;5.874;2023-12-20T03:11:33;3.29;3.16;2.90;2.44;19.52;19.50;19.44;19.09;16.36;0.56
66834;SPS30;53743;51.100;5.874;2023-12-20T03:12:34;3.70;3.56;3.28;2.79;22.29;22.28;22.21;21.83;18.76;0.55
66834;SPS30;53743;51.100;5.874;2023-12-20T03:13:36;3.63;3.49;3.23;2.76;22.06;22.05;21.99;21.63;18.62;0.55
66834;SPS30;53743;51.100;5.874;2023-12-20T03:14:37;3.62;3.50;3.26;2.82;22.55;22.53;22.47;22.15;19.14;0.55
66834;SPS30;53743;51.100;5.874;2023-12-20T03:15:39;3.45;3.33;3.09;2.65;21.21;21.19;21.13;20.81;17.93;0.56
66834;SPS30;53743;51.100;5.874;2023-12-20T03:16:40;3.62;3.49;3.22;2.75;21.97;21.96;21.89;21.53;18.52;0.56
66834;SPS30;53743;51.100;5.874;2023-12-20T03:17:42;3.55;3.44;3.22;2.80;22.34;22.33;22.27;21.97;19.00;0.54
66834;SPS30;53743;51.100;5.874;2023-12-20T03:18:43;3.91;3.81;3.62;3.20;25.55;25.54;25.49;25.21;21.93;0.53
66834;SPS30;53743;51.100;5.874;2023-12-20T03:19:44;4.29;4.19;3.99;3.54;28.30;28.29;28.24;27.95;24.34;0.53
66834;SPS30;53743;51.100;5.874;2023-12-20T03:20:46;4.12;4.01;3.81;3.36;26.88;26.87;26.81;26.52;23.06;0.53
66834;SPS30;53743;51.100;5.874;2023-12-20T03:21:50;4.11;4.00;3.78;3.33;26.61;26.60;26.54;26.24;22.79;0.53
66834;SPS30;53743;51.100;5.874;2023-12-20T03:22:53;3.81;3.73;3.58;3.21;25.63;25.62;25.58;25.35;22.13;0.51
66834;SPS30;53743;51.100;5.874;2023-12-20T03:23:56;3.94;3.86;3.71;3.33;26.61;26.60;26.55;26.33;23.01;0.52
66834;SPS30;53743;51.100;5.874;2023-12-20T03:24:58;3.91;3.84;3.69;3.33;26.58;26.57;26.53;26.31;23.01;0.51
66834;SPS30;53743;51.100;5.874;2023-12-20T03:25:59;4.28;4.19;4.02;3.61;28.81;28.79;28.75;28.50;24.89;0.52
66834;SPS30;53743;51.100;5.874;2023-12-20T03:27:01;4.72;4.61;4.39;3.91;31.27;31.25;31.20;30.89;26.92;0.52
66834;SPS30;53743;51.100;5.874;2023-12-20T03:28:02;4.39;4.29;4.10;3.65;29.16;29.15;29.09;28.81;25.12;0.53
66834;SPS30;53743;51.100;5.874;2023-12-20T03:29:05;4.46;4.35;4.12;3.63;29.04;29.03;28.97;28.65;24.90;0.54
66834;SPS30;53743;51.100;5.874;2023-12-20T03:30:06;4.89;4.77;4.54;4.03;32.20;32.19;32.13;31.80;27.68;0.53
66834;SPS30;53743;51.100;5.874;2023-12-20T03:31:09;3.77;3.69;3.52;3.15;25.13;25.12;25.07;24.83;21.66;0.54
66834;SPS30;53743;51.100;5.874;2023-12-20T03:32:11;4.22;4.12;3.91;3.46;27.67;27.65;27.60;27.31;23.76;0.56
66834;SPS30;53743;51.100;5.874;2023-12-20T03:33:13;4.31;4.19;3.95;3.47;27.70;27.69;27.62;27.29;23.68;0.56
66834;SPS30;53743;51.100;5.874;2023-12-20T03:34:13;4.68;4.55;4.30;3.77;30.12;30.10;30.04;29.67;25.75;0.55
66834;SPS30;53743;51.100;5.874;2023-12-20T03:35:15;3.96;3.84;3.62;3.16;25.27;25.26;25.20;24.88;21.57;0.56
66834;SPS30;53743;51.100;5.874;2023-12-20T03:36:16;4.13;4.02;3.80;3.34;26.70;26.68;26.63;26.31;22.85;0.55
66834;SPS30;53743;51.100;5.874;2023-12-20T03:37:18;3.98;3.88;3.69;3.27;26.10;26.08;26.03;25.76;22.41;0.54
66834;SPS30;53743;51.100;5.874;2023-12-20T03:38:19;4.10;3.99;3.78;3.33;26.57;26.56;26.51;26.20;22.76;0.55
66834;SPS30;53743;51.100;5.874;2023-12-20T03:39:23;4.25;4.13;3.90;3.43;27.43;27.42;27.36;27.04;23.48;0.55
66834;SPS30;53743;51.100;5.874;2023-12-20T03:40:24;3.98;3.87;3.65;3.21;25.63;25.62;25.56;25.26;21.93;0.55
66834;SPS30;53743;51.100;5.874;2023-12-20T03:41:26;3.61;3.50;3.29;2.87;22.91;22.90;22.84;22.55;19.53;0.55
66834;SPS30;53743;51.100;5.874;2023-12-20T03:42:27;4.44;4.28;3.96;3.39;27.08;27.07;26.99;26.56;22.86;0.55
66834;SPS30;53743;51.100;5.874;2023-12-20T03:43:29;3.98;3.85;3.60;3.12;24.95;24.94;24.87;24.53;21.21;0.53
66834;SPS30;53743;51.100;5.874;2023-12-20T03:44:30;3.92;3.80;3.56;3.10;24.77;24.75;24.69;24.36;21.09;0.54
66834;SPS30;53743;51.100;5.874;2023-12-20T03:45:32;3.92;3.79;3.56;3.10;24.75;24.74;24.68;24.35;21.08;0.55
66834;SPS30;53743;51.100;5.874;2023-12-20T03:46:33;4.11;3.97;3.71;3.21;25.68;25.67;25.60;25.24;21.82;0.55
66834;SPS30;53743;51.100;5.874;2023-12-20T03:47:35;3.73;3.62;3.40;2.96;23.67;23.66;23.60;23.29;20.18;0.52
66834;SPS30;53743;51.100;5.874;2023-12-20T03:48:36;4.24;4.10;3.84;3.33;26.59;26.58;26.51;26.14;22.60;0.53
66834;SPS30;53743;51.100;5.874;2023-12-20T03:49:38;4.04;3.90;3.64;3.14;25.13;25.11;25.04;24.68;21.31;0.53
66834;SPS30;53743;51.100;5.874;2023-12-20T03:50:39;4.13;3.99;3.73;3.23;25.84;25.82;25.76;25.40;21.95;0.51
66834;SPS30;53743;51.100;5.874;2023-12-20T03:51:41;4.32;4.19;3.94;3.43;27.44;27.43;27.36;27.01;23.40;0.52